sensor_id;sensor_type;location;lat;lon;timestamp;P1;durP1;ratioP1;P2;durP2;ratioP2
66485;SDS011;53303;47.476;8.084;2023-04-25T00:00:51;9.30;;;3.28;;
66485;SDS011;53303;47.476;8.084;2023-04-25T00:03:17;9.98;;;3.67;;
66485;SDS011;53303;47.476;8.084;2023-04-25T00:05:43;8.02;;;3.25;;
66485;SDS011;53303;47.476;8.084;2023-04-25T00:08:09;8.82;;;3.78;;
66485;SDS011;53303;47.476;8.084;2023-04-25T00:10:37;10.70;;;3.85;;
66485;SDS011;53303;47.476;8.084;2023-04-25T00:13:02;10.38;;;3.58;;
66485;SDS011;53303;47.476;8.084;2023-04-25T00:15:28;9.93;;;3.42;;
66485;SDS011;53303;47.476;8.084;2023-04-25T00:17:56;8.68;;;3.22;;
66485;SDS011;53303;47.476;8.084;2023-04-25T00:20:22;7.82;;;3.35;;
66485;SDS011;53303;47.476;8.084;2023-04-25T00:22:48;10.27;;;3.47;;
66485;SDS011;53303;47.476;8.084;2023-04-25T00:25:16;8.60;;;3.75;;
66485;SDS011;53303;47.476;8.084;2023-04-25T00:27:42;9.82;;;3.35;;
66485;SDS011;53303;47.476;8.084;2023-04-25T00:30:11;7.90;;;3.42;;
66485;SDS011;53303;47.476;8.084;2023-04-25T00:32:37;8.70;;;4.03;;
66485;SDS011;53303;47.476;8.084;2023-04-25T00:35:02;10.68;;;3.55;;
66485;SDS011;53303;47.476;8.084;2023-04-25T00:37:28;8.57;;;3.15;;
66485;SDS011;53303;47.476;8.084;2023-04-25T00:39:53;10.73;;;3.40;;
66485;SDS011;53303;47.476;8.084;2023-04-25T00:42:20;8.05;;;3.22;;
66485;SDS011;53303;47.476;8.084;2023-04-25T00:44:46;10.80;;;3.53;;
66485;SDS011;53303;47.476;8.084;2023-04-25T00:47:12;10.68;;;3.78;;
66485;SDS011;53303;47.476;8.084;2023-04-25T00:49:38;9.85;;;3.53;;
66485;SDS011;53303;47.476;8.084;2023-04-25T00:52:04;9.00;;;3.42;;
66485;SDS011;53303;47.476;8.084;2023-04-25T00:54:32;7.28;;;3.15;;
66485;SDS011;53303;47.476;8.084;2023-04-25T00:56:57;8.05;;;2.90;;
66485;SDS011;53303;47.476;8.084;2023-04-25T00:59:23;6.32;;;2.88;;
66485;SDS011;53303;47.476;8.084;2023-04-25T01:01:55;9.25;;;3.45;;
66485;SDS011;53303;47.476;8.084;2023-04-25T01:04:23;9.50;;;3.58;;
66485;SDS011;53303;47.476;8.084;2023-04-25T01:06:49;8.30;;;3.25;;
66485;SDS011;53303;47.476;8.084;2023-04-25T01:09:17;8.95;;;3.45;;
66485;SDS011;53303;47.476;8.084;2023-04-25T01:11:43;7.47;;;3.20;;
66485;SDS011;53303;47.476;8.084;2023-04-25T01:14:08;8.68;;;3.20;;
66485;SDS011;53303;47.476;8.084;2023-04-25T01:16:34;7.90;;;3.13;;
66485;SDS011;53303;47.476;8.084;2023-04-25T01:18:59;6.88;;;3.65;;
66485;SDS011;53303;47.476;8.084;2023-04-25T01:21:25;8.35;;;3.10;;
66485;SDS011;53303;47.476;8.084;2023-04-25T01:23:54;8.20;;;3.47;;
66485;SDS011;53303;47.476;8.084;2023-04-25T01:26:20;9.27;;;3.38;;
66485;SDS011;53303;47.476;8.084;2023-04-25T01:28:46;8.40;;;3.38;;
66485;SDS011;53303;47.476;8.084;2023-04-25T01:31:12;7.65;;;3.45;;
66485;SDS011;53303;47.476;8.084;2023-04-25T01:33:38;8.50;;;3.00;;
66485;SDS011;53303;47.476;8.084;2023-04-25T01:36:04;8.38;;;2.80;;
66485;SDS011;53303;47.476;8.084;2023-04-25T01:38:30;9.57;;;3.45;;
66485;SDS011;53303;47.476;8.084;2023-04-25T01:40:56;7.18;;;3.20;;
66485;SDS011;53303;47.476;8.084;2023-04-25T01:43:22;8.18;;;3.10;;
66485;SDS011;53303;47.476;8.084;2023-04-25T01:45:51;8.10;;;3.20;;
66485;SDS011;53303;47.476;8.084;2023-04-25T01:48:17;7.20;;;3.22;;
66485;SDS011;53303;47.476;8.084;2023-04-25T01:50:45;7.88;;;3.33;;
66485;SDS011;53303;47.476;8.084;2023-04-25T01:53:13;8.48;;;3.80;;
66485;SDS011;53303;47.476;8.084;2023-04-25T01:55:39;7.72;;;3.40;;
66485;SDS011;53303;47.476;8.084;2023-04-25T01:58:05;8.00;;;3.05;;
66485;SDS011;53303;47.476;8.084;2023-04-25T02:00:35;7.35;;;3.42;;
66485;SDS011;53303;47.476;8.084;2023-04-25T02:03:03;7.50;;;3.40;;
66485;SDS011;53303;47.476;8.084;2023-04-25T02:05:33;8.77;;;3.55;;
66485;SDS011;53303;47.476;8.084;2023-04-25T02:08:00;6.55;;;3.03;;
66485;SDS011;53303;47.476;8.084;2023-04-25T02:10:26;11.88;;;3.03;;
66485;SDS011;53303;47.476;8.084;2023-04-25T02:12:51;7.63;;;3.13;;
66485;SDS011;53303;47.476;8.084;2023-04-25T02:15:16;8.95;;;3.03;;
66485;SDS011;53303;47.476;8.084;2023-04-25T02:17:42;8.18;;;3.20;;
66485;SDS011;53303;47.476;8.084;2023-04-25T02:20:07;7.22;;;3.45;;
66485;SDS011;53303;47.476;8.084;2023-04-25T02:22:33;6.45;;;3.00;;
66485;SDS011;53303;47.476;8.084;2023-04-25T02:25:00;8.60;;;3.15;;
66485;SDS011;53303;47.476;8.084;2023-04-25T02:27:26;6.85;;;3.03;;
66485;SDS011;53303;47.476;8.084;2023-04-25T02:29:51;8.63;;;3.22;;
66485;SDS011;53303;47.476;8.084;2023-04-25T02:32:16;6.78;;;2.72;;
66485;SDS011;53303;47.476;8.084;2023-04-25T02:34:42;8.55;;;3.10;;
66485;SDS011;53303;47.476;8.084;2023-04-25T02:37:07;6.82;;;3.13;;
66485;SDS011;53303;47.476;8.084;2023-04-25T02:39:33;8.15;;;2.97;;
66485;SDS011;53303;47.476;8.084;2023-04-25T02:41:58;7.55;;;3.00;;
66485;SDS011;53303;47.476;8.084;2023-04-25T02:44:23;7.38;;;3.15;;
66485;SDS011;53303;47.476;8.084;2023-04-25T02:46:51;7.38;;;3.03;;
66485;SDS011;53303;47.476;8.084;2023-04-25T02:49:17;7.50;;;2.88;;
66485;SDS011;53303;47.476;8.084;2023-04-25T02:51:42;7.05;;;3.28;;
66485;SDS011;53303;47.476;8.084;2023-04-25T02:54:07;6.75;;;3.13;;
66485;SDS011;53303;47.476;8.084;2023-04-25T02:56:33;9.45;;;3.55;;
66485;SDS011;53303;47.476;8.084;2023-04-25T02:58:58;8.20;;;3.00;;
66485;SDS011;53303;47.476;8.084;2023-04-25T03:01:24;8.25;;;3.03;;
66485;SDS011;53303;47.476;8.084;2023-04-25T03:03:49;7.90;;;2.90;;
66485;SDS011;53303;47.476;8.084;2023-04-25T03:06:14;7.38;;;2.85;;
66485;SDS011;53303;47.476;8.084;2023-04-25T03:08:40;7.25;;;2.78;;
66485;SDS011;53303;47.476;8.084;2023-04-25T03:11:06;6.13;;;2.85;;
66485;SDS011;53303;47.476;8.084;2023-04-25T03:13:31;6.63;;;2.53;;
66485;SDS011;53303;47.476;8.084;2023-04-25T03:15:57;5.70;;;2.47;;
66485;SDS011;53303;47.476;8.084;2023-04-25T03:18:22;6.15;;;3.10;;
66485;SDS011;53303;47.476;8.084;2023-04-25T03:20:48;10.20;;;3.17;;
66485;SDS011;53303;47.476;8.084;2023-04-25T03:23:15;6.72;;;2.65;;
66485;SDS011;53303;47.476;8.084;2023-04-25T03:25:43;8.98;;;3.40;;
66485;SDS011;53303;47.476;8.084;2023-04-25T03:28:08;6.63;;;2.92;;
66485;SDS011;53303;47.476;8.084;2023-04-25T03:30:36;6.53;;;2.75;;
66485;SDS011;53303;47.476;8.084;2023-04-25T03:33:04;7.43;;;2.90;;
66485;SDS011;53303;47.476;8.084;2023-04-25T03:35:32;7.03;;;2.70;;
66485;SDS011;53303;47.476;8.084;2023-04-25T03:37:57;6.88;;;3.20;;
66485;SDS011;53303;47.476;8.084;2023-04-25T03:40:23;7.38;;;2.80;;
66485;SDS011;53303;47.476;8.084;2023-04-25T03:42:48;8.00;;;2.90;;
66485;SDS011;53303;47.476;8.084;2023-04-25T03:45:13;6.28;;;2.85;;
66485;SDS011;53303;47.476;8.084;2023-04-25T03:47:39;9.52;;;3.45;;
66485;SDS011;53303;47.476;8.084;2023-04-25T03:50:05;5.50;;;2.47;;
66485;SDS011;53303;47.476;8.084;2023-04-25T03:52:31;8.07;;;2.80;;
66485;SDS011;53303;47.476;8.084;2023-04-25T03:54:56;9.07;;;2.67;;
66485;SDS011;53303;47.476;8.084;2023-04-25T03:57:21;6.70;;;2.70;;
66485;SDS011;53303;47.476;8.084;2023-04-25T03:59:47;7.63;;;3.20;;
66485;SDS011;53303;47.476;8.084;2023-04-25T04:02:12;5.70;;;2.90;;
66485;SDS011;53303;47.476;8.084;2023-04-25T04:04:38;6.10;;;2.50;;
66485;SDS011;53303;47.476;8.084;2023-04-25T04:07:03;6.28;;;2.78;;
66485;SDS011;53303;47.476;8.084;2023-04-25T04:09:29;7.50;;;2.60;;
66485;SDS011;53303;47.476;8.084;2023-04-25T04:11:54;6.57;;;2.50;;
66485;SDS011;53303;47.476;8.084;2023-04-25T04:14:22;8.63;;;2.67;;
66485;SDS011;53303;47.476;8.084;2023-04-25T04:16:47;6.78;;;2.80;;
66485;SDS011;53303;47.476;8.084;2023-04-25T04:19:13;9.40;;;2.97;;
66485;SDS011;53303;47.476;8.084;2023-04-25T04:21:39;7.65;;;3.05;;
66485;SDS011;53303;47.476;8.084;2023-04-25T04:24:04;7.22;;;2.70;;
66485;SDS011;53303;47.476;8.084;2023-04-25T04:26:31;7.32;;;2.78;;
66485;SDS011;53303;47.476;8.084;2023-04-25T04:28:57;8.40;;;2.90;;
66485;SDS011;53303;47.476;8.084;2023-04-25T04:31:24;7.93;;;2.83;;
66485;SDS011;53303;47.476;8.084;2023-04-25T04:33:49;7.18;;;2.85;;
66485;SDS011;53303;47.476;8.084;2023-04-25T04:36:15;6.10;;;2.47;;
66485;SDS011;53303;47.476;8.084;2023-04-25T04:38:46;8.05;;;2.88;;
66485;SDS011;53303;47.476;8.084;2023-04-25T04:41:14;6.45;;;2.83;;
66485;SDS011;53303;47.476;8.084;2023-04-25T04:43:42;6.05;;;2.55;;
66485;SDS011;53303;47.476;8.084;2023-04-25T04:46:08;6.20;;;3.03;;
66485;SDS011;53303;47.476;8.084;2023-04-25T04:48:35;6.38;;;2.80;;
66485;SDS011;53303;47.476;8.084;2023-04-25T04:51:00;6.40;;;2.72;;
66485;SDS011;53303;47.476;8.084;2023-04-25T04:53:26;6.88;;;2.70;;
66485;SDS011;53303;47.476;8.084;2023-04-25T04:55:52;10.32;;;3.00;;
66485;SDS011;53303;47.476;8.084;2023-04-25T04:58:19;7.65;;;2.70;;
66485;SDS011;53303;47.476;8.084;2023-04-25T05:00:44;7.53;;;2.90;;
66485;SDS011;53303;47.476;8.084;2023-04-25T05:03:10;10.10;;;3.00;;
66485;SDS011;53303;47.476;8.084;2023-04-25T05:05:36;11.75;;;2.97;;
66485;SDS011;53303;47.476;8.084;2023-04-25T05:08:05;9.60;;;2.90;;
66485;SDS011;53303;47.476;8.084;2023-04-25T05:10:33;7.50;;;2.53;;
66485;SDS011;53303;47.476;8.084;2023-04-25T05:12:59;6.95;;;2.67;;
66485;SDS011;53303;47.476;8.084;2023-04-25T05:15:24;13.23;;;3.22;;
66485;SDS011;53303;47.476;8.084;2023-04-25T05:17:52;14.63;;;2.90;;
66485;SDS011;53303;47.476;8.084;2023-04-25T05:20:17;17.00;;;3.17;;
66485;SDS011;53303;47.476;8.084;2023-04-25T05:22:46;8.60;;;2.45;;
66485;SDS011;53303;47.476;8.084;2023-04-25T05:25:11;12.23;;;3.40;;
66485;SDS011;53303;47.476;8.084;2023-04-25T05:27:37;10.30;;;2.85;;
66485;SDS011;53303;47.476;8.084;2023-04-25T05:30:02;10.88;;;3.10;;
66485;SDS011;53303;47.476;8.084;2023-04-25T05:32:28;14.02;;;3.58;;
66485;SDS011;53303;47.476;8.084;2023-04-25T05:34:56;7.68;;;3.22;;
66485;SDS011;53303;47.476;8.084;2023-04-25T05:37:22;9.63;;;3.13;;
66485;SDS011;53303;47.476;8.084;2023-04-25T05:39:47;9.35;;;3.00;;
66485;SDS011;53303;47.476;8.084;2023-04-25T05:42:13;11.15;;;3.13;;
66485;SDS011;53303;47.476;8.084;2023-04-25T05:44:38;13.65;;;3.38;;
66485;SDS011;53303;47.476;8.084;2023-04-25T05:47:04;10.63;;;3.10;;
66485;SDS011;53303;47.476;8.084;2023-04-25T05:49:30;10.68;;;2.92;;
66485;SDS011;53303;47.476;8.084;2023-04-25T05:51:55;10.95;;;2.67;;
66485;SDS011;53303;47.476;8.084;2023-04-25T05:54:20;9.02;;;2.60;;
66485;SDS011;53303;47.476;8.084;2023-04-25T05:56:46;10.20;;;2.90;;
66485;SDS011;53303;47.476;8.084;2023-04-25T05:59:11;8.48;;;2.67;;
66485;SDS011;53303;47.476;8.084;2023-04-25T06:01:36;9.32;;;3.03;;
66485;SDS011;53303;47.476;8.084;2023-04-25T06:04:02;7.18;;;3.10;;
66485;SDS011;53303;47.476;8.084;2023-04-25T06:06:30;9.73;;;3.10;;
66485;SDS011;53303;47.476;8.084;2023-04-25T06:08:55;12.95;;;3.10;;
66485;SDS011;53303;47.476;8.084;2023-04-25T06:11:21;12.48;;;3.60;;
66485;SDS011;53303;47.476;8.084;2023-04-25T06:13:48;9.70;;;3.10;;
66485;SDS011;53303;47.476;8.084;2023-04-25T06:16:16;9.82;;;3.00;;
66485;SDS011;53303;47.476;8.084;2023-04-25T06:18:41;7.68;;;3.00;;
66485;SDS011;53303;47.476;8.084;2023-04-25T06:21:07;10.48;;;2.85;;
66485;SDS011;53303;47.476;8.084;2023-04-25T06:23:35;8.52;;;2.70;;
66485;SDS011;53303;47.476;8.084;2023-04-25T06:26:00;10.27;;;2.85;;
66485;SDS011;53303;47.476;8.084;2023-04-25T06:28:25;11.65;;;3.15;;
66485;SDS011;53303;47.476;8.084;2023-04-25T06:30:51;8.65;;;2.95;;
66485;SDS011;53303;47.476;8.084;2023-04-25T06:33:16;7.82;;;2.78;;
66485;SDS011;53303;47.476;8.084;2023-04-25T06:35:42;11.48;;;3.13;;
66485;SDS011;53303;47.476;8.084;2023-04-25T06:38:09;9.93;;;3.00;;
66485;SDS011;53303;47.476;8.084;2023-04-25T06:40:35;9.93;;;2.90;;
66485;SDS011;53303;47.476;8.084;2023-04-25T06:43:04;7.78;;;2.80;;
66485;SDS011;53303;47.476;8.084;2023-04-25T06:45:29;8.60;;;3.10;;
66485;SDS011;53303;47.476;8.084;2023-04-25T06:47:57;11.15;;;2.85;;
66485;SDS011;53303;47.476;8.084;2023-04-25T06:50:23;8.68;;;2.65;;
66485;SDS011;53303;47.476;8.084;2023-04-25T06:52:48;7.43;;;2.75;;
66485;SDS011;53303;47.476;8.084;2023-04-25T06:55:13;7.72;;;2.45;;
66485;SDS011;53303;47.476;8.084;2023-04-25T06:57:39;10.07;;;2.83;;
66485;SDS011;53303;47.476;8.084;2023-04-25T07:00:04;8.13;;;3.30;;
66485;SDS011;53303;47.476;8.084;2023-04-25T07:02:33;7.03;;;2.88;;
66485;SDS011;53303;47.476;8.084;2023-04-25T07:04:58;7.57;;;3.05;;
66485;SDS011;53303;47.476;8.084;2023-04-25T07:07:25;6.97;;;2.55;;
66485;SDS011;53303;47.476;8.084;2023-04-25T07:09:50;8.27;;;2.72;;
66485;SDS011;53303;47.476;8.084;2023-04-25T07:12:23;8.77;;;2.83;;
66485;SDS011;53303;47.476;8.084;2023-04-25T07:14:48;6.25;;;2.65;;
66485;SDS011;53303;47.476;8.084;2023-04-25T07:17:14;6.25;;;2.60;;
66485;SDS011;53303;47.476;8.084;2023-04-25T07:19:40;6.57;;;2.83;;
66485;SDS011;53303;47.476;8.084;2023-04-25T07:22:06;7.45;;;2.67;;
66485;SDS011;53303;47.476;8.084;2023-04-25T07:24:31;7.22;;;2.72;;
66485;SDS011;53303;47.476;8.084;2023-04-25T07:26:57;6.18;;;2.35;;
66485;SDS011;53303;47.476;8.084;2023-04-25T07:29:23;6.22;;;2.80;;
66485;SDS011;53303;47.476;8.084;2023-04-25T07:31:50;8.32;;;2.83;;
66485;SDS011;53303;47.476;8.084;2023-04-25T07:34:18;6.63;;;2.70;;
66485;SDS011;53303;47.476;8.084;2023-04-25T07:36:43;7.38;;;2.72;;
66485;SDS011;53303;47.476;8.084;2023-04-25T07:39:08;7.00;;;2.70;;
66485;SDS011;53303;47.476;8.084;2023-04-25T07:41:34;5.80;;;2.58;;
66485;SDS011;53303;47.476;8.084;2023-04-25T07:44:02;6.63;;;2.40;;
66485;SDS011;53303;47.476;8.084;2023-04-25T07:46:27;6.53;;;2.63;;
66485;SDS011;53303;47.476;8.084;2023-04-25T07:48:53;7.00;;;2.25;;
66485;SDS011;53303;47.476;8.084;2023-04-25T07:51:18;9.82;;;2.47;;
66485;SDS011;53303;47.476;8.084;2023-04-25T07:53:45;5.90;;;2.53;;
66485;SDS011;53303;47.476;8.084;2023-04-25T07:56:11;6.70;;;2.65;;
66485;SDS011;53303;47.476;8.084;2023-04-25T07:58:36;6.90;;;2.50;;
66485;SDS011;53303;47.476;8.084;2023-04-25T08:01:02;7.22;;;2.70;;
66485;SDS011;53303;47.476;8.084;2023-04-25T08:03:30;8.02;;;2.53;;
66485;SDS011;53303;47.476;8.084;2023-04-25T08:05:56;5.78;;;2.80;;
66485;SDS011;53303;47.476;8.084;2023-04-25T08:08:21;5.78;;;2.70;;
66485;SDS011;53303;47.476;8.084;2023-04-25T08:10:46;7.25;;;2.63;;
66485;SDS011;53303;47.476;8.084;2023-04-25T08:13:14;6.65;;;2.60;;
66485;SDS011;53303;47.476;8.084;2023-04-25T08:15:39;8.07;;;2.67;;
66485;SDS011;53303;47.476;8.084;2023-04-25T08:18:05;6.60;;;2.60;;
66485;SDS011;53303;47.476;8.084;2023-04-25T08:20:30;6.15;;;2.83;;
66485;SDS011;53303;47.476;8.084;2023-04-25T08:22:56;6.07;;;2.30;;
66485;SDS011;53303;47.476;8.084;2023-04-25T08:25:21;5.38;;;2.47;;
66485;SDS011;53303;47.476;8.084;2023-04-25T08:27:47;6.00;;;2.55;;
66485;SDS011;53303;47.476;8.084;2023-04-25T08:30:12;6.88;;;2.50;;
66485;SDS011;53303;47.476;8.084;2023-04-25T08:32:38;5.97;;;2.38;;
66485;SDS011;53303;47.476;8.084;2023-04-25T08:35:03;6.65;;;2.63;;
66485;SDS011;53303;47.476;8.084;2023-04-25T08:37:36;4.82;;;2.30;;
66485;SDS011;53303;47.476;8.084;2023-04-25T08:40:03;5.90;;;2.55;;
66485;SDS011;53303;47.476;8.084;2023-04-25T08:42:32;5.95;;;2.30;;
66485;SDS011;53303;47.476;8.084;2023-04-25T08:44:59;5.78;;;2.20;;
66485;SDS011;53303;47.476;8.084;2023-04-25T08:47:26;5.38;;;2.72;;
66485;SDS011;53303;47.476;8.084;2023-04-25T08:49:54;7.25;;;2.50;;
66485;SDS011;53303;47.476;8.084;2023-04-25T08:52:24;6.10;;;2.70;;
66485;SDS011;53303;47.476;8.084;2023-04-25T08:54:57;5.90;;;2.30;;
66485;SDS011;53303;47.476;8.084;2023-04-25T08:57:25;5.35;;;2.50;;
66485;SDS011;53303;47.476;8.084;2023-04-25T08:59:52;5.82;;;2.40;;
66485;SDS011;53303;47.476;8.084;2023-04-25T09:02:18;6.93;;;2.20;;
66485;SDS011;53303;47.476;8.084;2023-04-25T09:04:45;5.10;;;2.30;;
66485;SDS011;53303;47.476;8.084;2023-04-25T09:07:11;5.72;;;2.20;;
66485;SDS011;53303;47.476;8.084;2023-04-25T09:09:40;6.18;;;2.33;;
66485;SDS011;53303;47.476;8.084;2023-04-25T09:12:08;5.03;;;2.33;;
66485;SDS011;53303;47.476;8.084;2023-04-25T09:14:34;5.38;;;2.15;;
66485;SDS011;53303;47.476;8.084;2023-04-25T09:17:03;5.78;;;2.30;;
66485;SDS011;53303;47.476;8.084;2023-04-25T09:19:33;5.88;;;2.40;;
66485;SDS011;53303;47.476;8.084;2023-04-25T09:22:01;5.15;;;2.20;;
66485;SDS011;53303;47.476;8.084;2023-04-25T09:24:41;6.93;;;2.33;;
66485;SDS011;53303;47.476;8.084;2023-04-25T09:27:10;5.78;;;2.30;;
66485;SDS011;53303;47.476;8.084;2023-04-25T09:29:36;5.80;;;2.50;;
66485;SDS011;53303;47.476;8.084;2023-04-25T09:32:14;5.63;;;2.40;;
66485;SDS011;53303;47.476;8.084;2023-04-25T09:39:46;4.95;;;2.10;;
66485;SDS011;53303;47.476;8.084;2023-04-25T09:42:13;7.13;;;2.25;;
66485;SDS011;53303;47.476;8.084;2023-04-25T09:44:43;6.47;;;2.38;;
66485;SDS011;53303;47.476;8.084;2023-04-25T09:47:11;6.72;;;2.30;;
66485;SDS011;53303;47.476;8.084;2023-04-25T09:49:42;5.53;;;2.40;;
66485;SDS011;53303;47.476;8.084;2023-04-25T09:52:08;8.80;;;2.70;;
66485;SDS011;53303;47.476;8.084;2023-04-25T09:54:37;5.90;;;2.40;;
66485;SDS011;53303;47.476;8.084;2023-04-25T09:57:09;6.32;;;2.50;;
66485;SDS011;53303;47.476;8.084;2023-04-25T09:59:46;5.72;;;2.13;;
66485;SDS011;53303;47.476;8.084;2023-04-25T10:02:13;5.97;;;2.15;;
66485;SDS011;53303;47.476;8.084;2023-04-25T10:04:50;6.55;;;2.38;;
66485;SDS011;53303;47.476;8.084;2023-04-25T10:07:21;6.32;;;2.13;;
66485;SDS011;53303;47.476;8.084;2023-04-25T10:09:51;5.30;;;2.13;;
66485;SDS011;53303;47.476;8.084;2023-04-25T10:12:29;5.03;;;2.30;;
66485;SDS011;53303;47.476;8.084;2023-04-25T10:14:58;5.82;;;2.10;;
66485;SDS011;53303;47.476;8.084;2023-04-25T10:17:24;4.55;;;1.90;;
66485;SDS011;53303;47.476;8.084;2023-04-25T10:19:54;4.95;;;1.98;;
66485;SDS011;53303;47.476;8.084;2023-04-25T10:22:29;6.60;;;2.15;;
66485;SDS011;53303;47.476;8.084;2023-04-25T10:24:57;4.63;;;2.00;;
66485;SDS011;53303;47.476;8.084;2023-04-25T10:27:24;4.78;;;2.20;;
66485;SDS011;53303;47.476;8.084;2023-04-25T10:32:30;5.70;;;2.38;;
66485;SDS011;53303;47.476;8.084;2023-04-25T10:34:57;5.88;;;2.53;;
66485;SDS011;53303;47.476;8.084;2023-04-25T10:37:22;5.40;;;2.03;;
66485;SDS011;53303;47.476;8.084;2023-04-25T10:39:49;7.00;;;2.40;;
66485;SDS011;53303;47.476;8.084;2023-04-25T10:42:14;5.03;;;2.05;;
66485;SDS011;53303;47.476;8.084;2023-04-25T10:44:40;5.45;;;2.10;;
66485;SDS011;53303;47.476;8.084;2023-04-25T10:47:06;5.20;;;2.10;;
66485;SDS011;53303;47.476;8.084;2023-04-25T10:49:42;5.53;;;2.10;;
66485;SDS011;53303;47.476;8.084;2023-04-25T10:54:47;5.82;;;2.17;;
66485;SDS011;53303;47.476;8.084;2023-04-25T10:57:29;5.60;;;2.08;;
66485;SDS011;53303;47.476;8.084;2023-04-25T11:02:45;4.20;;;1.92;;
66485;SDS011;53303;47.476;8.084;2023-04-25T11:05:23;4.75;;;2.17;;
66485;SDS011;53303;47.476;8.084;2023-04-25T11:08:00;5.53;;;2.30;;
66485;SDS011;53303;47.476;8.084;2023-04-25T11:10:29;4.55;;;2.05;;
66485;SDS011;53303;47.476;8.084;2023-04-25T11:12:57;5.93;;;2.00;;
66485;SDS011;53303;47.476;8.084;2023-04-25T11:15:23;6.88;;;2.00;;
66485;SDS011;53303;47.476;8.084;2023-04-25T11:17:50;6.28;;;2.15;;
66485;SDS011;53303;47.476;8.084;2023-04-25T11:20:16;7.07;;;2.20;;
66485;SDS011;53303;47.476;8.084;2023-04-25T11:22:43;5.07;;;1.85;;
66485;SDS011;53303;47.476;8.084;2023-04-25T11:25:10;5.53;;;2.17;;
66485;SDS011;53303;47.476;8.084;2023-04-25T11:27:49;6.65;;;2.22;;
66485;SDS011;53303;47.476;8.084;2023-04-25T11:30:16;5.13;;;2.35;;
66485;SDS011;53303;47.476;8.084;2023-04-25T11:32:42;4.85;;;2.08;;
66485;SDS011;53303;47.476;8.084;2023-04-25T11:35:08;5.93;;;2.10;;
66485;SDS011;53303;47.476;8.084;2023-04-25T11:37:34;5.13;;;2.00;;
66485;SDS011;53303;47.476;8.084;2023-04-25T11:40:00;6.00;;;2.08;;
66485;SDS011;53303;47.476;8.084;2023-04-25T11:42:26;6.65;;;1.90;;
66485;SDS011;53303;47.476;8.084;2023-04-25T11:44:51;4.80;;;2.13;;
66485;SDS011;53303;47.476;8.084;2023-04-25T11:47:17;6.80;;;2.00;;
66485;SDS011;53303;47.476;8.084;2023-04-25T11:49:44;4.78;;;2.05;;
66485;SDS011;53303;47.476;8.084;2023-04-25T11:52:10;5.45;;;2.17;;
66485;SDS011;53303;47.476;8.084;2023-04-25T11:54:36;5.53;;;2.08;;
66485;SDS011;53303;47.476;8.084;2023-04-25T11:57:02;5.60;;;2.05;;
66485;SDS011;53303;47.476;8.084;2023-04-25T11:59:28;6.15;;;2.30;;
66485;SDS011;53303;47.476;8.084;2023-04-25T12:01:53;5.10;;;2.10;;
66485;SDS011;53303;47.476;8.084;2023-04-25T12:04:23;4.63;;;2.00;;
66485;SDS011;53303;47.476;8.084;2023-04-25T12:06:50;5.75;;;2.00;;
66485;SDS011;53303;47.476;8.084;2023-04-25T12:09:20;3.65;;;1.48;;
66485;SDS011;53303;47.476;8.084;2023-04-25T12:11:53;6.22;;;1.75;;
66485;SDS011;53303;47.476;8.084;2023-04-25T12:14:27;5.70;;;1.75;;
66485;SDS011;53303;47.476;8.084;2023-04-25T12:16:58;4.82;;;1.70;;
66485;SDS011;53303;47.476;8.084;2023-04-25T12:19:25;4.07;;;1.60;;
66485;SDS011;53303;47.476;8.084;2023-04-25T12:21:51;6.30;;;1.60;;
66485;SDS011;53303;47.476;8.084;2023-04-25T12:24:17;8.02;;;2.17;;
66485;SDS011;53303;47.476;8.084;2023-04-25T12:29:17;7.97;;;2.13;;
66485;SDS011;53303;47.476;8.084;2023-04-25T12:31:47;6.30;;;2.00;;
66485;SDS011;53303;47.476;8.084;2023-04-25T12:34:13;10.27;;;1.80;;
66485;SDS011;53303;47.476;8.084;2023-04-25T12:36:39;8.13;;;2.20;;
66485;SDS011;53303;47.476;8.084;2023-04-25T12:39:05;8.25;;;2.38;;
66485;SDS011;53303;47.476;8.084;2023-04-25T12:41:33;8.23;;;2.13;;
66485;SDS011;53303;47.476;8.084;2023-04-25T12:43:59;9.63;;;2.72;;
66485;SDS011;53303;47.476;8.084;2023-04-25T12:46:24;5.72;;;2.08;;
66485;SDS011;53303;47.476;8.084;2023-04-25T12:48:50;7.28;;;2.13;;
66485;SDS011;53303;47.476;8.084;2023-04-25T12:51:17;7.60;;;2.30;;
66485;SDS011;53303;47.476;8.084;2023-04-25T12:53:43;6.15;;;2.20;;
66485;SDS011;53303;47.476;8.084;2023-04-25T12:56:08;8.48;;;2.45;;
66485;SDS011;53303;47.476;8.084;2023-04-25T12:58:34;14.90;;;2.78;;
66485;SDS011;53303;47.476;8.084;2023-04-25T13:01:02;9.43;;;2.53;;
66485;SDS011;53303;47.476;8.084;2023-04-25T13:03:28;8.00;;;2.05;;
66485;SDS011;53303;47.476;8.084;2023-04-25T13:05:53;9.25;;;2.50;;
66485;SDS011;53303;47.476;8.084;2023-04-25T13:08:19;9.88;;;2.85;;
66485;SDS011;53303;47.476;8.084;2023-04-25T13:10:47;12.80;;;2.67;;
66485;SDS011;53303;47.476;8.084;2023-04-25T13:13:13;7.75;;;2.25;;
66485;SDS011;53303;47.476;8.084;2023-04-25T13:15:41;10.93;;;2.80;;
66485;SDS011;53303;47.476;8.084;2023-04-25T13:18:06;10.18;;;2.97;;
66485;SDS011;53303;47.476;8.084;2023-04-25T13:20:32;10.50;;;2.38;;
66485;SDS011;53303;47.476;8.084;2023-04-25T13:22:58;14.13;;;2.85;;
66485;SDS011;53303;47.476;8.084;2023-04-25T13:25:23;9.57;;;2.50;;
66485;SDS011;53303;47.476;8.084;2023-04-25T13:27:52;9.93;;;2.40;;
66485;SDS011;53303;47.476;8.084;2023-04-25T13:30:17;11.35;;;3.20;;
66485;SDS011;53303;47.476;8.084;2023-04-25T13:32:42;11.38;;;3.00;;
66485;SDS011;53303;47.476;8.084;2023-04-25T13:35:09;8.15;;;2.58;;
66485;SDS011;53303;47.476;8.084;2023-04-25T13:37:37;9.35;;;2.70;;
66485;SDS011;53303;47.476;8.084;2023-04-25T13:40:04;10.90;;;3.03;;
66485;SDS011;53303;47.476;8.084;2023-04-25T13:42:31;12.63;;;3.08;;
66485;SDS011;53303;47.476;8.084;2023-04-25T13:44:57;12.70;;;3.50;;
66485;SDS011;53303;47.476;8.084;2023-04-25T13:47:22;19.70;;;3.95;;
66485;SDS011;53303;47.476;8.084;2023-04-25T13:49:48;16.08;;;3.72;;
66485;SDS011;53303;47.476;8.084;2023-04-25T13:52:14;13.48;;;3.10;;
66485;SDS011;53303;47.476;8.084;2023-04-25T13:54:40;16.05;;;2.70;;
66485;SDS011;53303;47.476;8.084;2023-04-25T13:57:08;13.52;;;2.95;;
66485;SDS011;53303;47.476;8.084;2023-04-25T13:59:35;10.02;;;2.45;;
66485;SDS011;53303;47.476;8.084;2023-04-25T14:02:03;10.65;;;2.58;;
66485;SDS011;53303;47.476;8.084;2023-04-25T14:04:29;10.20;;;2.03;;
66485;SDS011;53303;47.476;8.084;2023-04-25T14:06:57;10.35;;;2.30;;
66485;SDS011;53303;47.476;8.084;2023-04-25T14:09:23;5.32;;;1.25;;
66485;SDS011;53303;47.476;8.084;2023-04-25T14:11:53;7.07;;;1.40;;
66485;SDS011;53303;47.476;8.084;2023-04-25T14:14:21;4.05;;;1.38;;
66485;SDS011;53303;47.476;8.084;2023-04-25T14:16:48;3.47;;;1.30;;
66485;SDS011;53303;47.476;8.084;2023-04-25T14:19:16;7.40;;;1.45;;
66485;SDS011;53303;47.476;8.084;2023-04-25T14:21:42;7.47;;;1.20;;
66485;SDS011;53303;47.476;8.084;2023-04-25T14:24:08;3.90;;;1.02;;
66485;SDS011;53303;47.476;8.084;2023-04-25T14:26:36;3.58;;;1.20;;
66485;SDS011;53303;47.476;8.084;2023-04-25T14:29:02;5.75;;;1.52;;
66485;SDS011;53303;47.476;8.084;2023-04-25T14:31:31;3.25;;;1.13;;
66485;SDS011;53303;47.476;8.084;2023-04-25T14:34:00;6.35;;;1.30;;
66485;SDS011;53303;47.476;8.084;2023-04-25T14:36:27;2.05;;;0.90;;
66485;SDS011;53303;47.476;8.084;2023-04-25T14:38:53;2.85;;;0.90;;
66485;SDS011;53303;47.476;8.084;2023-04-25T14:41:19;5.32;;;1.10;;
66485;SDS011;53303;47.476;8.084;2023-04-25T14:43:44;4.30;;;1.02;;
66485;SDS011;53303;47.476;8.084;2023-04-25T14:46:10;5.22;;;1.10;;
66485;SDS011;53303;47.476;8.084;2023-04-25T14:48:36;2.17;;;1.10;;
66485;SDS011;53303;47.476;8.084;2023-04-25T14:51:02;5.97;;;1.23;;
66485;SDS011;53303;47.476;8.084;2023-04-25T14:53:27;3.85;;;1.30;;
66485;SDS011;53303;47.476;8.084;2023-04-25T14:56:02;2.72;;;1.10;;
66485;SDS011;53303;47.476;8.084;2023-04-25T14:58:28;2.50;;;1.10;;